sensor_id;sensor_type;location;lat;lon;timestamp;temperature;humidity
56542;DHT22;42438;53.174;6.730;2024-01-25T00:01:14;6.90;1.00
56542;DHT22;42438;53.174;6.730;2024-01-25T00:03:45;7.20;1.00
56542;DHT22;42438;53.174;6.730;2024-01-25T00:06:16;7.40;1.00
56542;DHT22;42438;53.174;6.730;2024-01-25T00:08:47;7.00;1.00
56542;DHT22;42438;53.174;6.730;2024-01-25T00:11:17;7.10;1.00
56542;DHT22;42438;53.174;6.730;2024-01-25T00:13:48;7.60;1.00
56542;DHT22;42438;53.174;6.730;2024-01-25T00:16:18;7.20;1.00
56542;DHT22;42438;53.174;6.730;2024-01-25T00:18:49;7.10;1.00
56542;DHT22;42438;53.174;6.730;2024-01-25T00:21:20;7.40;1.00
56542;DHT22;42438;53.174;6.730;2024-01-25T00:23:50;7.40;1.00
56542;DHT22;42438;53.174;6.730;2024-01-25T00:26:21;8.40;1.00
56542;DHT22;42438;53.174;6.730;2024-01-25T00:28:51;7.10;1.00
56542;DHT22;42438;53.174;6.730;2024-01-25T00:31:22;6.90;1.00
56542;DHT22;42438;53.174;6.730;2024-01-25T00:33:53;7.00;1.00
56542;DHT22;42438;53.174;6.730;2024-01-25T00:36:24;7.20;1.00
56542;DHT22;42438;53.174;6.730;2024-01-25T00:38:55;7.20;1.00
56542;DHT22;42438;53.174;6.730;2024-01-25T00:41:27;7.20;1.00
56542;DHT22;42438;53.174;6.730;2024-01-25T00:44:00;7.10;1.00
56542;DHT22;42438;53.174;6.730;2024-01-25T00:46:31;6.50;1.00
56542;DHT22;42438;53.174;6.730;2024-01-25T00:49:02;7.00;1.00
56542;DHT22;42438;53.174;6.730;2024-01-25T00:51:33;6.50;1.00
56542;DHT22;42438;53.174;6.730;2024-01-25T00:54:04;7.00;1.00
56542;DHT22;42438;53.174;6.730;2024-01-25T00:56:35;6.40;45.30
56542;DHT22;42438;53.174;6.730;2024-01-25T00:59:06;6.40;99.90
56542;DHT22;42438;53.174;6.730;2024-01-25T01:01:37;6.60;99.90
56542;DHT22;42438;53.174;6.730;2024-01-25T01:04:08;6.30;99.90
56542;DHT22;42438;53.174;6.730;2024-01-25T01:06:39;6.20;99.90
56542;DHT22;42438;53.174;6.730;2024-01-25T01:09:09;6.60;1.00
56542;DHT22;42438;53.174;6.730;2024-01-25T01:11:40;6.30;1.00
56542;DHT22;42438;53.174;6.730;2024-01-25T01:14:11;6.20;1.00
56542;DHT22;42438;53.174;6.730;2024-01-25T01:16:41;6.70;1.00
56542;DHT22;42438;53.174;6.730;2024-01-25T01:19:12;6.70;6.80
56542;DHT22;42438;53.174;6.730;2024-01-25T01:21:43;6.70;51.20
56542;DHT22;42438;53.174;6.730;2024-01-25T01:24:14;6.60;41.10
56542;DHT22;42438;53.174;6.730;2024-01-25T01:26:45;6.80;99.90
56542;DHT22;42438;53.174;6.730;2024-01-25T01:29:17;6.80;99.90
56542;DHT22;42438;53.174;6.730;2024-01-25T01:31:48;6.00;99.90
56542;DHT22;42438;53.174;6.730;2024-01-25T01:34:18;6.50;99.90
56542;DHT22;42438;53.174;6.730;2024-01-25T01:36:49;6.00;99.90
56542;DHT22;42438;53.174;6.730;2024-01-25T01:39:20;6.70;99.90
56542;DHT22;42438;53.174;6.730;2024-01-25T01:41:50;6.90;99.90
56542;DHT22;42438;53.174;6.730;2024-01-25T01:44:21;6.60;99.90
56542;DHT22;42438;53.174;6.730;2024-01-25T01:46:51;6.40;99.90
56542;DHT22;42438;53.174;6.730;2024-01-25T01:49:22;6.00;1.00
56542;DHT22;42438;53.174;6.730;2024-01-25T01:51:53;6.50;1.00
56542;DHT22;42438;53.174;6.730;2024-01-25T01:54:24;6.30;52.60
56542;DHT22;42438;53.174;6.730;2024-01-25T01:56:56;6.70;99.90
56542;DHT22;42438;53.174;6.730;2024-01-25T01:59:26;6.40;99.90
56542;DHT22;42438;53.174;6.730;2024-01-25T02:01:59;6.10;99.90
56542;DHT22;42438;53.174;6.730;2024-01-25T02:04:29;6.50;99.90
56542;DHT22;42438;53.174;6.730;2024-01-25T02:07:00;6.90;1.00
56542;DHT22;42438;53.174;6.730;2024-01-25T02:09:31;7.40;1.00
56542;DHT22;42438;53.174;6.730;2024-01-25T02:12:02;6.00;65.60
56542;DHT22;42438;53.174;6.730;2024-01-25T02:14:33;6.30;99.90
56542;DHT22;42438;53.174;6.730;2024-01-25T02:17:03;6.80;99.90
56542;DHT22;42438;53.174;6.730;2024-01-25T02:19:34;6.60;99.90
56542;DHT22;42438;53.174;6.730;2024-01-25T02:22:05;5.80;99.90
56542;DHT22;42438;53.174;6.730;2024-01-25T02:24:36;6.40;99.90
56542;DHT22;42438;53.174;6.730;2024-01-25T02:27:07;5.90;1.00
56542;DHT22;42438;53.174;6.730;2024-01-25T02:29:37;6.00;99.90
56542;DHT22;42438;53.174;6.730;2024-01-25T02:32:08;6.00;99.90
56542;DHT22;42438;53.174;6.730;2024-01-25T02:34:38;5.80;99.90
56542;DHT22;42438;53.174;6.730;2024-01-25T02:37:09;7.00;1.00
56542;DHT22;42438;53.174;6.730;2024-01-25T02:39:41;5.90;99.90
56542;DHT22;42438;53.174;6.730;2024-01-25T02:42:12;6.40;99.90
56542;DHT22;42438;53.174;6.730;2024-01-25T02:44:44;5.70;99.90
56542;DHT22;42438;53.174;6.730;2024-01-25T02:47:14;5.80;99.90
56542;DHT22;42438;53.174;6.730;2024-01-25T02:49:45;6.10;1.00
56542;DHT22;42438;53.174;6.730;2024-01-25T02:52:16;6.20;1.00
56542;DHT22;42438;53.174;6.730;2024-01-25T02:54:47;6.90;99.90
56542;DHT22;42438;53.174;6.730;2024-01-25T02:57:18;6.80;1.00
56542;DHT22;42438;53.174;6.730;2024-01-25T02:59:48;5.50;1.00
56542;DHT22;42438;53.174;6.730;2024-01-25T03:02:19;6.60;94.00
56542;DHT22;42438;53.174;6.730;2024-01-25T03:04:50;6.40;99.90
56542;DHT22;42438;53.174;6.730;2024-01-25T03:07:20;5.40;99.90
56542;DHT22;42438;53.174;6.730;2024-01-25T03:09:51;5.90;1.00
56542;DHT22;42438;53.174;6.730;2024-01-25T03:12:22;6.60;1.00
56542;DHT22;42438;53.174;6.730;2024-01-25T03:14:52;6.10;99.90
56542;DHT22;42438;53.174;6.730;2024-01-25T03:17:23;6.80;99.90
56542;DHT22;42438;53.174;6.730;2024-01-25T03:19:53;6.30;99.90
56542;DHT22;42438;53.174;6.730;2024-01-25T03:22:24;6.30;99.90
56542;DHT22;42438;53.174;6.730;2024-01-25T03:24:55;6.00;1.00
56542;DHT22;42438;53.174;6.730;2024-01-25T03:27:26;5.60;1.00
56542;DHT22;42438;53.174;6.730;2024-01-25T03:29:56;5.40;1.00
56542;DHT22;42438;53.174;6.730;2024-01-25T03:32:27;5.40;71.50
56542;DHT22;42438;53.174;6.730;2024-01-25T03:34:57;7.30;92.00
56542;DHT22;42438;53.174;6.730;2024-01-25T03:37:28;6.10;99.90
56542;DHT22;42438;53.174;6.730;2024-01-25T03:39:59;5.70;99.90
56542;DHT22;42438;53.174;6.730;2024-01-25T03:42:29;5.70;99.90
56542;DHT22;42438;53.174;6.730;2024-01-25T03:45:00;5.60;99.90
56542;DHT22;42438;53.174;6.730;2024-01-25T03:47:31;5.40;99.90
56542;DHT22;42438;53.174;6.730;2024-01-25T03:50:01;6.20;99.90
56542;DHT22;42438;53.174;6.730;2024-01-25T03:52:32;5.00;99.90
56542;DHT22;42438;53.174;6.730;2024-01-25T03:55:03;5.50;99.90
56542;DHT22;42438;53.174;6.730;2024-01-25T03:57:34;5.80;99.90
56542;DHT22;42438;53.174;6.730;2024-01-25T04:00:07;5.90;99.90
56542;DHT22;42438;53.174;6.730;2024-01-25T04:02:37;5.60;99.90
56542;DHT22;42438;53.174;6.730;2024-01-25T04:05:08;5.40;99.90
56542;DHT22;42438;53.174;6.730;2024-01-25T04:07:39;6.60;99.90
56542;DHT22;42438;53.174;6.730;2024-01-25T04:10:09;4.80;99.90
56542;DHT22;42438;53.174;6.730;2024-01-25T04:12:40;5.60;1.00
56542;DHT22;42438;53.174;6.730;2024-01-25T04:15:11;5.00;1.00
56542;DHT22;42438;53.174;6.730;2024-01-25T04:17:42;4.80;1.00
56542;DHT22;42438;53.174;6.730;2024-01-25T04:20:12;4.80;1.00
56542;DHT22;42438;53.174;6.730;2024-01-25T04:22:43;4.60;1.00
56542;DHT22;42438;53.174;6.730;2024-01-25T04:25:15;5.00;1.00
56542;DHT22;42438;53.174;6.730;2024-01-25T04:27:45;4.90;1.00
56542;DHT22;42438;53.174;6.730;2024-01-25T04:30:16;5.40;1.00
56542;DHT22;42438;53.174;6.730;2024-01-25T04:32:47;5.40;1.00
56542;DHT22;42438;53.174;6.730;2024-01-25T04:35:17;4.70;1.00
56542;DHT22;42438;53.174;6.730;2024-01-25T04:37:48;4.70;1.00
56542;DHT22;42438;53.174;6.730;2024-01-25T04:40:19;4.40;1.00
56542;DHT22;42438;53.174;6.730;2024-01-25T04:42:49;5.40;1.00
56542;DHT22;42438;53.174;6.730;2024-01-25T04:45:20;5.90;1.00
56542;DHT22;42438;53.174;6.730;2024-01-25T04:47:51;5.20;1.00
56542;DHT22;42438;53.174;6.730;2024-01-25T04:50:22;5.00;1.00
56542;DHT22;42438;53.174;6.730;2024-01-25T04:52:53;4.20;1.00
56542;DHT22;42438;53.174;6.730;2024-01-25T04:55:23;4.40;1.00
56542;DHT22;42438;53.174;6.730;2024-01-25T04:57:54;4.00;1.00
56542;DHT22;42438;53.174;6.730;2024-01-25T05:00:24;4.80;1.00
56542;DHT22;42438;53.174;6.730;2024-01-25T05:02:55;4.00;1.00
56542;DHT22;42438;53.174;6.730;2024-01-25T05:05:27;5.50;1.00
56542;DHT22;42438;53.174;6.730;2024-01-25T05:07:57;4.90;1.00
56542;DHT22;42438;53.174;6.730;2024-01-25T05:10:28;4.80;1.00
56542;DHT22;42438;53.174;6.730;2024-01-25T05:12:59;4.30;1.00
56542;DHT22;42438;53.174;6.730;2024-01-25T05:15:29;4.80;1.00
56542;DHT22;42438;53.174;6.730;2024-01-25T05:18:01;4.40;1.00
56542;DHT22;42438;53.174;6.730;2024-01-25T05:20:31;4.50;1.00
56542;DHT22;42438;53.174;6.730;2024-01-25T05:23:03;4.70;1.00
56542;DHT22;42438;53.174;6.730;2024-01-25T05:25:34;3.90;1.00
56542;DHT22;42438;53.174;6.730;2024-01-25T05:28:05;4.60;1.00
56542;DHT22;42438;53.174;6.730;2024-01-25T05:30:35;4.70;1.00
56542;DHT22;42438;53.174;6.730;2024-01-25T05:33:06;4.60;1.00
56542;DHT22;42438;53.174;6.730;2024-01-25T05:35:37;4.40;1.00
56542;DHT22;42438;53.174;6.730;2024-01-25T05:38:08;4.50;1.00
56542;DHT22;42438;53.174;6.730;2024-01-25T05:40:38;4.40;1.00
56542;DHT22;42438;53.174;6.730;2024-01-25T05:43:09;4.20;1.00
56542;DHT22;42438;53.174;6.730;2024-01-25T05:45:40;3.60;1.00
56542;DHT22;42438;53.174;6.730;2024-01-25T05:48:10;4.00;1.00
56542;DHT22;42438;53.174;6.730;2024-01-25T05:50:41;4.40;1.00
56542;DHT22;42438;53.174;6.730;2024-01-25T05:53:12;4.10;1.00
56542;DHT22;42438;53.174;6.730;2024-01-25T05:55:43;4.30;1.00
56542;DHT22;42438;53.174;6.730;2024-01-25T05:58:13;4.20;1.00
56542;DHT22;42438;53.174;6.730;2024-01-25T06:00:44;3.80;1.00
56542;DHT22;42438;53.174;6.730;2024-01-25T06:03:15;3.90;1.00
56542;DHT22;42438;53.174;6.730;2024-01-25T06:05:46;4.20;1.00
56542;DHT22;42438;53.174;6.730;2024-01-25T06:08:16;4.10;1.00
56542;DHT22;42438;53.174;6.730;2024-01-25T06:10:47;3.40;1.00
56542;DHT22;42438;53.174;6.730;2024-01-25T06:13:18;3.80;1.00
56542;DHT22;42438;53.174;6.730;2024-01-25T06:15:48;3.40;1.00
56542;DHT22;42438;53.174;6.730;2024-01-25T06:18:19;3.20;1.00
56542;DHT22;42438;53.174;6.730;2024-01-25T06:20:50;3.30;1.00
56542;DHT22;42438;53.174;6.730;2024-01-25T06:23:20;3.70;1.00
56542;DHT22;42438;53.174;6.730;2024-01-25T06:25:51;3.20;1.00
56542;DHT22;42438;53.174;6.730;2024-01-25T06:28:22;3.60;1.00
56542;DHT22;42438;53.174;6.730;2024-01-25T06:30:52;3.60;1.00
56542;DHT22;42438;53.174;6.730;2024-01-25T06:33:23;4.50;1.00
56542;DHT22;42438;53.174;6.730;2024-01-25T06:35:54;3.60;1.00
56542;DHT22;42438;53.174;6.730;2024-01-25T06:38:25;3.70;1.00
56542;DHT22;42438;53.174;6.730;2024-01-25T06:40:56;3.70;3.10
56542;DHT22;42438;53.174;6.730;2024-01-25T06:43:26;3.20;17.00
56542;DHT22;42438;53.174;6.730;2024-01-25T06:45:57;3.80;18.70
56542;DHT22;42438;53.174;6.730;2024-01-25T06:48:28;3.80;33.80
56542;DHT22;42438;53.174;6.730;2024-01-25T06:50:58;3.80;32.30
56542;DHT22;42438;53.174;6.730;2024-01-25T06:53:29;3.80;35.20
56542;DHT22;42438;53.174;6.730;2024-01-25T06:56:00;3.60;30.60
56542;DHT22;42438;53.174;6.730;2024-01-25T06:58:30;3.10;29.50
56542;DHT22;42438;53.174;6.730;2024-01-25T07:01:01;3.40;35.10
56542;DHT22;42438;53.174;6.730;2024-01-25T07:03:31;3.70;38.30
56542;DHT22;42438;53.174;6.730;2024-01-25T07:06:02;3.70;54.40
56542;DHT22;42438;53.174;6.730;2024-01-25T07:08:34;3.60;60.10
56542;DHT22;42438;53.174;6.730;2024-01-25T07:11:04;3.20;63.70
56542;DHT22;42438;53.174;6.730;2024-01-25T07:13:35;3.20;66.50
56542;DHT22;42438;53.174;6.730;2024-01-25T07:16:06;3.60;67.50
56542;DHT22;42438;53.174;6.730;2024-01-25T07:18:36;3.10;71.40
56542;DHT22;42438;53.174;6.730;2024-01-25T07:21:07;3.70;84.70
56542;DHT22;42438;53.174;6.730;2024-01-25T07:23:38;3.80;98.70
56542;DHT22;42438;53.174;6.730;2024-01-25T07:26:08;3.30;99.70
56542;DHT22;42438;53.174;6.730;2024-01-25T07:28:39;3.70;99.40
56542;DHT22;42438;53.174;6.730;2024-01-25T07:31:09;3.20;99.90
56542;DHT22;42438;53.174;6.730;2024-01-25T07:33:40;3.10;99.90
56542;DHT22;42438;53.174;6.730;2024-01-25T07:36:11;3.80;99.90
56542;DHT22;42438;53.174;6.730;2024-01-25T07:38:41;3.70;99.90
56542;DHT22;42438;53.174;6.730;2024-01-25T07:41:12;3.70;99.90
56542;DHT22;42438;53.174;6.730;2024-01-25T07:43:43;3.80;99.90
56542;DHT22;42438;53.174;6.730;2024-01-25T07:46:13;3.20;99.90
56542;DHT22;42438;53.174;6.730;2024-01-25T07:48:45;3.30;99.90
56542;DHT22;42438;53.174;6.730;2024-01-25T07:51:16;3.60;99.90
56542;DHT22;42438;53.174;6.730;2024-01-25T07:53:46;3.60;99.90
56542;DHT22;42438;53.174;6.730;2024-01-25T07:56:17;4.90;99.90
56542;DHT22;42438;53.174;6.730;2024-01-25T07:58:50;3.50;99.90
56542;DHT22;42438;53.174;6.730;2024-01-25T08:01:21;3.40;99.90
56542;DHT22;42438;53.174;6.730;2024-01-25T08:03:52;3.90;99.90
56542;DHT22;42438;53.174;6.730;2024-01-25T08:06:23;3.70;99.90
56542;DHT22;42438;53.174;6.730;2024-01-25T08:08:53;3.50;99.90
56542;DHT22;42438;53.174;6.730;2024-01-25T08:11:24;4.00;99.90
56542;DHT22;42438;53.174;6.730;2024-01-25T08:13:55;4.40;99.90
56542;DHT22;42438;53.174;6.730;2024-01-25T08:16:26;4.00;99.90
56542;DHT22;42438;53.174;6.730;2024-01-25T08:18:56;3.50;99.90
56542;DHT22;42438;53.174;6.730;2024-01-25T08:21:29;4.10;99.90
56542;DHT22;42438;53.174;6.730;2024-01-25T08:23:59;3.60;99.90
56542;DHT22;42438;53.174;6.730;2024-01-25T08:26:30;3.60;99.90
56542;DHT22;42438;53.174;6.730;2024-01-25T08:29:00;4.20;99.90
56542;DHT22;42438;53.174;6.730;2024-01-25T08:31:31;5.40;99.90
56542;DHT22;42438;53.174;6.730;2024-01-25T08:34:02;4.20;99.90
56542;DHT22;42438;53.174;6.730;2024-01-25T08:36:33;3.80;99.90
56542;DHT22;42438;53.174;6.730;2024-01-25T08:39:03;4.40;99.90
56542;DHT22;42438;53.174;6.730;2024-01-25T08:41:35;5.10;99.90
56542;DHT22;42438;53.174;6.730;2024-01-25T08:44:06;3.20;99.90
56542;DHT22;42438;53.174;6.730;2024-01-25T08:46:37;4.00;99.90
56542;DHT22;42438;53.174;6.730;2024-01-25T08:49:08;4.60;99.90
56542;DHT22;42438;53.174;6.730;2024-01-25T08:51:40;4.10;99.90
56542;DHT22;42438;53.174;6.730;2024-01-25T08:54:11;4.70;99.90
56542;DHT22;42438;53.174;6.730;2024-01-25T08:56:41;4.20;99.90
56542;DHT22;42438;53.174;6.730;2024-01-25T08:59:12;4.30;99.90
56542;DHT22;42438;53.174;6.730;2024-01-25T09:01:43;4.80;99.90
56542;DHT22;42438;53.174;6.730;2024-01-25T09:04:13;5.50;99.90
56542;DHT22;42438;53.174;6.730;2024-01-25T09:06:44;4.50;99.90
56542;DHT22;42438;53.174;6.730;2024-01-25T09:09:14;5.60;99.90
56542;DHT22;42438;53.174;6.730;2024-01-25T09:11:45;6.00;99.90
56542;DHT22;42438;53.174;6.730;2024-01-25T09:14:16;4.60;99.90
56542;DHT22;42438;53.174;6.730;2024-01-25T09:16:46;4.70;99.90
56542;DHT22;42438;53.174;6.730;2024-01-25T09:19:17;5.60;99.90
56542;DHT22;42438;53.174;6.730;2024-01-25T09:21:48;4.70;99.90
56542;DHT22;42438;53.174;6.730;2024-01-25T09:24:19;5.60;99.90
56542;DHT22;42438;53.174;6.730;2024-01-25T09:26:50;6.10;99.90
56542;DHT22;42438;53.174;6.730;2024-01-25T09:29:20;5.20;99.90
56542;DHT22;42438;53.174;6.730;2024-01-25T09:31:51;4.90;99.90
56542;DHT22;42438;53.174;6.730;2024-01-25T09:34:21;6.30;99.90
56542;DHT22;42438;53.174;6.730;2024-01-25T09:36:52;5.10;99.90
56542;DHT22;42438;53.174;6.730;2024-01-25T09:39:23;6.20;99.90
56542;DHT22;42438;53.174;6.730;2024-01-25T09:41:53;5.60;99.90
56542;DHT22;42438;53.174;6.730;2024-01-25T09:44:24;5.40;99.90
56542;DHT22;42438;53.174;6.730;2024-01-25T09:46:55;5.60;99.90
56542;DHT22;42438;53.174;6.730;2024-01-25T09:49:26;5.40;99.90
56542;DHT22;42438;53.174;6.730;2024-01-25T09:51:57;5.40;99.90
56542;DHT22;42438;53.174;6.730;2024-01-25T09:54:28;5.90;99.90
56542;DHT22;42438;53.174;6.730;2024-01-25T09:57:02;5.40;99.90
56542;DHT22;42438;53.174;6.730;2024-01-25T09:59:33;5.70;99.90
56542;DHT22;42438;53.174;6.730;2024-01-25T10:02:04;5.50;99.90
56542;DHT22;42438;53.174;6.730;2024-01-25T10:04:35;6.10;99.90
56542;DHT22;42438;53.174;6.730;2024-01-25T10:07:05;5.70;99.90
56542;DHT22;42438;53.174;6.730;2024-01-25T10:09:40;6.10;99.90
56542;DHT22;42438;53.174;6.730;2024-01-25T10:12:11;6.20;99.90
56542;DHT22;42438;53.174;6.730;2024-01-25T10:14:42;6.10;99.90
56542;DHT22;42438;53.174;6.730;2024-01-25T10:17:12;5.90;99.90
56542;DHT22;42438;53.174;6.730;2024-01-25T10:19:44;6.30;99.90
56542;DHT22;42438;53.174;6.730;2024-01-25T10:22:14;5.80;99.90
56542;DHT22;42438;53.174;6.730;2024-01-25T10:24:45;6.40;99.90
56542;DHT22;42438;53.174;6.730;2024-01-25T10:27:16;6.20;99.90
56542;DHT22;42438;53.174;6.730;2024-01-25T10:29:47;5.90;99.90
56542;DHT22;42438;53.174;6.730;2024-01-25T10:32:18;6.50;99.90
56542;DHT22;42438;53.174;6.730;2024-01-25T10:34:50;6.30;99.90
56542;DHT22;42438;53.174;6.730;2024-01-25T10:37:22;6.70;99.90
56542;DHT22;42438;53.174;6.730;2024-01-25T10:39:55;6.60;99.90
56542;DHT22;42438;53.174;6.730;2024-01-25T10:42:25;6.40;99.90
56542;DHT22;42438;53.174;6.730;2024-01-25T10:44:56;6.40;99.90
56542;DHT22;42438;53.174;6.730;2024-01-25T10:47:27;6.40;99.90
56542;DHT22;42438;53.174;6.730;2024-01-25T10:50:04;5.90;99.90
56542;DHT22;42438;53.174;6.730;2024-01-25T10:52:40;5.90;99.90
56542;DHT22;42438;53.174;6.730;2024-01-25T10:55:12;6.00;99.90
56542;DHT22;42438;53.174;6.730;2024-01-25T10:57:45;6.00;99.90
56542;DHT22;42438;53.174;6.730;2024-01-25T11:00:16;6.10;99.90
56542;DHT22;42438;53.174;6.730;2024-01-25T11:02:47;6.10;99.90
56542;DHT22;42438;53.174;6.730;2024-01-25T11:05:19;6.90;99.90
56542;DHT22;42438;53.174;6.730;2024-01-25T11:07:51;7.00;99.90
56542;DHT22;42438;53.174;6.730;2024-01-25T11:10:24;7.80;99.90
56542;DHT22;42438;53.174;6.730;2024-01-25T11:12:56;7.40;99.90
56542;DHT22;42438;53.174;6.730;2024-01-25T11:15:35;6.60;99.90
56542;DHT22;42438;53.174;6.730;2024-01-25T11:18:08;6.70;99.90
56542;DHT22;42438;53.174;6.730;2024-01-25T11:20:39;7.50;99.90
56542;DHT22;42438;53.174;6.730;2024-01-25T11:23:14;6.80;99.90
56542;DHT22;42438;53.174;6.730;2024-01-25T11:25:47;6.90;99.90
56542;DHT22;42438;53.174;6.730;2024-01-25T11:28:18;7.10;99.90
56542;DHT22;42438;53.174;6.730;2024-01-25T11:30:49;7.60;99.90
56542;DHT22;42438;53.174;6.730;2024-01-25T11:33:20;7.70;99.90
56542;DHT22;42438;53.174;6.730;2024-01-25T11:35:56;7.00;99.90
56542;DHT22;42438;53.174;6.730;2024-01-25T11:38:28;7.70;99.90
56542;DHT22;42438;53.174;6.730;2024-01-25T11:40:59;6.90;99.90
56542;DHT22;42438;53.174;6.730;2024-01-25T11:43:30;7.60;99.90
56542;DHT22;42438;53.174;6.730;2024-01-25T11:46:00;7.80;99.90
56542;DHT22;42438;53.174;6.730;2024-01-25T11:48:31;7.00;99.90
56542;DHT22;42438;53.174;6.730;2024-01-25T11:51:02;7.70;99.90
56542;DHT22;42438;53.174;6.730;2024-01-25T11:53:33;7.80;99.90
56542;DHT22;42438;53.174;6.730;2024-01-25T11:56:07;7.30;99.90
56542;DHT22;42438;53.174;6.730;2024-01-25T11:58:40;7.80;95.60
56542;DHT22;42438;53.174;6.730;2024-01-25T12:01:12;7.80;83.60
56542;DHT22;42438;53.174;6.730;2024-01-25T12:03:43;7.80;48.50
56542;DHT22;42438;53.174;6.730;2024-01-25T12:06:14;7.50;30.40
56542;DHT22;42438;53.174;6.730;2024-01-25T12:08:45;7.70;33.10
56542;DHT22;42438;53.174;6.730;2024-01-25T12:11:18;8.20;21.50
56542;DHT22;42438;53.174;6.730;2024-01-25T12:13:52;7.90;9.80
56542;DHT22;42438;53.174;6.730;2024-01-25T12:16:22;7.90;1.00
56542;DHT22;42438;53.174;6.730;2024-01-25T12:18:53;8.80;1.00
56542;DHT22;42438;53.174;6.730;2024-01-25T12:21:24;8.30;1.00
56542;DHT22;42438;53.174;6.730;2024-01-25T12:23:55;7.80;1.00
56542;DHT22;42438;53.174;6.730;2024-01-25T12:26:28;8.50;1.00
56542;DHT22;42438;53.174;6.730;2024-01-25T12:28:59;7.40;1.00
56542;DHT22;42438;53.174;6.730;2024-01-25T12:31:30;7.60;1.00
56542;DHT22;42438;53.174;6.730;2024-01-25T12:34:01;7.70;1.00
56542;DHT22;42438;53.174;6.730;2024-01-25T12:36:32;7.70;99.90
56542;DHT22;42438;53.174;6.730;2024-01-25T12:39:04;7.70;99.90
56542;DHT22;42438;53.174;6.730;2024-01-25T12:41:35;7.80;99.90
56542;DHT22;42438;53.174;6.730;2024-01-25T12:44:06;8.00;99.90
56542;DHT22;42438;53.174;6.730;2024-01-25T12:46:37;8.50;99.90
56542;DHT22;42438;53.174;6.730;2024-01-25T12:49:08;7.80;99.90
56542;DHT22;42438;53.174;6.730;2024-01-25T12:51:39;8.10;99.90
56542;DHT22;42438;53.174;6.730;2024-01-25T12:54:10;9.30;71.10
56542;DHT22;42438;53.174;6.730;2024-01-25T12:56:41;9.00;99.90
56542;DHT22;42438;53.174;6.730;2024-01-25T12:59:11;8.20;1.00
56542;DHT22;42438;53.174;6.730;2024-01-25T13:01:42;8.10;99.90
56542;DHT22;42438;53.174;6.730;2024-01-25T13:04:13;8.70;97.50
56542;DHT22;42438;53.174;6.730;2024-01-25T13:06:43;8.20;99.90
56542;DHT22;42438;53.174;6.730;2024-01-25T13:09:14;7.80;1.00
56542;DHT22;42438;53.174;6.730;2024-01-25T13:11:47;7.90;1.00
56542;DHT22;42438;53.174;6.730;2024-01-25T13:14:17;8.60;99.90
56542;DHT22;42438;53.174;6.730;2024-01-25T13:16:48;8.20;50.60
56542;DHT22;42438;53.174;6.730;2024-01-25T13:19:18;8.80;99.90
56542;DHT22;42438;53.174;6.730;2024-01-25T13:21:49;7.70;1.00
56542;DHT22;42438;53.174;6.730;2024-01-25T13:24:20;7.80;76.40
56542;DHT22;42438;53.174;6.730;2024-01-25T13:26:50;8.60;1.00
56542;DHT22;42438;53.174;6.730;2024-01-25T13:29:21;9.40;99.90
56542;DHT22;42438;53.174;6.730;2024-01-25T13:31:51;7.80;1.00
56542;DHT22;42438;53.174;6.730;2024-01-25T13:34:22;8.10;99.90
56542;DHT22;42438;53.174;6.730;2024-01-25T13:36:53;7.80;99.90
56542;DHT22;42438;53.174;6.730;2024-01-25T13:39:23;8.70;99.90
56542;DHT22;42438;53.174;6.730;2024-01-25T13:41:54;7.90;99.90
56542;DHT22;42438;53.174;6.730;2024-01-25T13:44:25;8.20;40.70
56542;DHT22;42438;53.174;6.730;2024-01-25T13:46:55;8.80;87.70
56542;DHT22;42438;53.174;6.730;2024-01-25T13:49:26;9.40;1.00
56542;DHT22;42438;53.174;6.730;2024-01-25T13:52:00;8.00;1.00
56542;DHT22;42438;53.174;6.730;2024-01-25T13:54:31;8.30;1.00
56542;DHT22;42438;53.174;6.730;2024-01-25T13:57:01;7.90;99.90
56542;DHT22;42438;53.174;6.730;2024-01-25T13:59:32;8.50;99.90
56542;DHT22;42438;53.174;6.730;2024-01-25T14:02:03;7.90;99.90
56542;DHT22;42438;53.174;6.730;2024-01-25T14:04:34;7.80;1.00
56542;DHT22;42438;53.174;6.730;2024-01-25T14:07:05;7.70;8.70
56542;DHT22;42438;53.174;6.730;2024-01-25T14:09:36;7.70;6.40
56542;DHT22;42438;53.174;6.730;2024-01-25T14:12:08;8.60;99.90
56542;DHT22;42438;53.174;6.730;2024-01-25T14:14:38;8.50;99.90
56542;DHT22;42438;53.174;6.730;2024-01-25T14:17:09;8.70;99.90
56542;DHT22;42438;53.174;6.730;2024-01-25T14:19:40;7.80;99.90
56542;DHT22;42438;53.174;6.730;2024-01-25T14:22:10;8.20;99.90
56542;DHT22;42438;53.174;6.730;2024-01-25T14:24:41;8.30;14.70
56542;DHT22;42438;53.174;6.730;2024-01-25T14:27:12;7.80;1.00
56542;DHT22;42438;53.174;6.730;2024-01-25T14:29:42;8.70;1.00
56542;DHT22;42438;53.174;6.730;2024-01-25T14:32:13;8.10;1.00
56542;DHT22;42438;53.174;6.730;2024-01-25T14:34:44;8.50;1.00
56542;DHT22;42438;53.174;6.730;2024-01-25T14:37:14;9.40;99.90
56542;DHT22;42438;53.174;6.730;2024-01-25T14:39:45;8.10;99.90
56542;DHT22;42438;53.174;6.730;2024-01-25T14:42:16;8.30;99.90
56542;DHT22;42438;53.174;6.730;2024-01-25T14:44:48;8.60;99.90
56542;DHT22;42438;53.174;6.730;2024-01-25T14:47:18;8.10;99.90
56542;DHT22;42438;53.174;6.730;2024-01-25T14:49:52;7.20;99.90
56542;DHT22;42438;53.174;6.730;2024-01-25T14:52:23;7.50;99.90
56542;DHT22;42438;53.174;6.730;2024-01-25T14:54:53;7.00;99.90
56542;DHT22;42438;53.174;6.730;2024-01-25T14:57:24;8.00;99.90
56542;DHT22;42438;53.174;6.730;2024-01-25T14:59:55;8.00;99.90
56542;DHT22;42438;53.174;6.730;2024-01-25T15:02:26;6.90;99.90
56542;DHT22;42438;53.174;6.730;2024-01-25T15:04:56;7.50;1.00
56542;DHT22;42438;53.174;6.730;2024-01-25T15:07:27;6.70;1.00
56542;DHT22;42438;53.174;6.730;2024-01-25T15:09:58;7.80;1.00
56542;DHT22;42438;53.174;6.730;2024-01-25T15:12:28;6.50;1.00
56542;DHT22;42438;53.174;6.730;2024-01-25T15:14:59;7.50;1.00
56542;DHT22;42438;53.174;6.730;2024-01-25T15:17:29;7.60;1.00
56542;DHT22;42438;53.174;6.730;2024-01-25T15:20:00;7.70;5.30
56542;DHT22;42438;53.174;6.730;2024-01-25T15:22:31;7.50;99.90
56542;DHT22;42438;53.174;6.730;2024-01-25T15:25:01;7.40;99.90
56542;DHT22;42438;53.174;6.730;2024-01-25T15:27:32;6.20;99.90
56542;DHT22;42438;53.174;6.730;2024-01-25T15:30:03;6.50;99.90
56542;DHT22;42438;53.174;6.730;2024-01-25T15:32:37;6.40;1.00
56542;DHT22;42438;53.174;6.730;2024-01-25T15:35:08;7.60;1.00
56542;DHT22;42438;53.174;6.730;2024-01-25T15:37:39;6.50;1.00
56542;DHT22;42438;53.174;6.730;2024-01-25T15:40:12;6.50;1.00
56542;DHT22;42438;53.174;6.730;2024-01-25T15:42:43;6.40;1.00
56542;DHT22;42438;53.174;6.730;2024-01-25T15:45:14;6.30;62.00
56542;DHT22;42438;53.174;6.730;2024-01-25T15:47:45;6.80;99.90
56542;DHT22;42438;53.174;6.730;2024-01-25T15:50:16;7.50;99.90
56542;DHT22;42438;53.174;6.730;2024-01-25T15:52:49;7.40;99.90
56542;DHT22;42438;53.174;6.730;2024-01-25T15:55:21;7.50;99.90
56542;DHT22;42438;53.174;6.730;2024-01-25T15:57:52;6.30;99.90
56542;DHT22;42438;53.174;6.730;2024-01-25T16:00:22;6.40;99.90
56542;DHT22;42438;53.174;6.730;2024-01-25T16:02:53;7.00;99.90
56542;DHT22;42438;53.174;6.730;2024-01-25T16:05:26;7.50;99.90
56542;DHT22;42438;53.174;6.730;2024-01-25T16:07:57;7.60;99.90
56542;DHT22;42438;53.174;6.730;2024-01-25T16:10:27;6.40;99.90
56542;DHT22;42438;53.174;6.730;2024-01-25T16:12:58;6.90;99.90
56542;DHT22;42438;53.174;6.730;2024-01-25T16:15:29;7.30;99.90